sensor_id;sensor_type;location;lat;lon;timestamp;pressure;altitude;pressure_sealevel;temperature;humidity
40372;BME280;28564;53.346;-6.554;2022-09-01T09:04:07;101656.05;;;22.31;42.96
40372;BME280;28564;53.346;-6.554;2022-09-01T09:06:47;101650.67;;;22.72;42.78
40372;BME280;28564;53.346;-6.554;2022-09-01T09:09:16;101651.26;;;23.15;42.35
40372;BME280;28564;53.346;-6.554;2022-09-01T09:11:56;101650.78;;;23.15;41.57
40372;BME280;28564;53.346;-6.554;2022-09-01T09:14:39;101648.76;;;23.28;40.98
40372;BME280;28564;53.346;-6.554;2022-09-01T09:17:09;101647.95;;;23.13;40.85
40372;BME280;28564;53.346;-6.554;2022-09-01T09:19:39;101645.00;;;23.15;40.08
40372;BME280;28564;53.346;-6.554;2022-09-01T09:22:10;101640.98;;;23.03;39.87
40372;BME280;28564;53.346;-6.554;2022-09-01T09:24:45;101637.95;;;22.95;39.77
40372;BME280;28564;53.346;-6.554;2022-09-01T09:27:18;101637.32;;;23.08;39.83
40372;BME280;28564;53.346;-6.554;2022-09-01T09:29:46;101636.04;;;23.46;39.67
40372;BME280;28564;53.346;-6.554;2022-09-01T09:32:14;101632.42;;;23.13;39.47
40372;BME280;28564;53.346;-6.554;2022-09-01T09:34:41;101636.52;;;22.97;39.19
40372;BME280;28564;53.346;-6.554;2022-09-01T09:37:28;101635.00;;;23.24;39.40
40372;BME280;28564;53.346;-6.554;2022-09-01T09:40:08;101636.66;;;23.12;39.29
40372;BME280;28564;53.346;-6.554;2022-09-01T09:42:36;101633.44;;;22.92;38.92
40372;BME280;28564;53.346;-6.554;2022-09-01T09:45:05;101633.21;;;23.08;38.92
40372;BME280;28564;53.346;-6.554;2022-09-01T09:47:41;101629.97;;;23.38;39.06
40372;BME280;28564;53.346;-6.554;2022-09-01T09:50:15;101624.51;;;23.25;39.08
40372;BME280;28564;53.346;-6.554;2022-09-01T09:52:43;101622.33;;;23.17;38.87
40372;BME280;28564;53.346;-6.554;2022-09-01T09:55:21;101623.75;;;23.05;38.83
40372;BME280;28564;53.346;-6.554;2022-09-01T09:57:50;101621.29;;;23.71;38.81
40372;BME280;28564;53.346;-6.554;2022-09-01T10:00:22;101620.84;;;23.77;38.49
40372;BME280;28564;53.346;-6.554;2022-09-01T10:02:53;101614.27;;;23.39;38.34
40372;BME280;28564;53.346;-6.554;2022-09-01T10:05:26;101611.90;;;23.39;38.11
40372;BME280;28564;53.346;-6.554;2022-09-01T10:07:55;101610.36;;;23.66;37.98
40372;BME280;28564;53.346;-6.554;2022-09-01T10:10:30;101608.58;;;23.48;38.22
40372;BME280;28564;53.346;-6.554;2022-09-01T10:13:03;101605.02;;;23.30;38.46
40372;BME280;28564;53.346;-6.554;2022-09-01T10:15:32;101601.98;;;23.68;38.37
40372;BME280;28564;53.346;-6.554;2022-09-01T10:18:08;101601.58;;;23.82;38.34
40372;BME280;28564;53.346;-6.554;2022-09-01T10:20:37;101598.63;;;23.96;38.17
40372;BME280;28564;53.346;-6.554;2022-09-01T10:23:05;101596.72;;;23.61;38.00
40372;BME280;28564;53.346;-6.554;2022-09-01T10:25:34;101597.44;;;23.71;37.83
40372;BME280;28564;53.346;-6.554;2022-09-01T10:28:07;101596.60;;;24.09;37.54
40372;BME280;28564;53.346;-6.554;2022-09-01T10:30:36;101596.21;;;24.02;37.09
40372;BME280;28564;53.346;-6.554;2022-09-01T10:33:06;101586.37;;;24.20;36.85
40372;BME280;28564;53.346;-6.554;2022-09-01T10:35:40;101588.12;;;24.33;36.67
40372;BME280;28564;53.346;-6.554;2022-09-01T10:38:13;101580.74;;;24.43;36.46
40372;BME280;28564;53.346;-6.554;2022-09-01T10:40:42;101574.84;;;24.44;35.88
40372;BME280;28564;53.346;-6.554;2022-09-01T10:43:34;101578.42;;;24.36;35.79
40372;BME280;28564;53.346;-6.554;2022-09-01T10:46:08;101578.96;;;24.31;35.83
40372;BME280;28564;53.346;-6.554;2022-09-01T10:48:36;101574.32;;;24.18;35.89
40372;BME280;28564;53.346;-6.554;2022-09-01T10:51:43;101574.85;;;24.01;36.03
40372;BME280;28564;53.346;-6.554;2022-09-01T10:54:51;101577.86;;;23.68;36.36
40372;BME280;28564;53.346;-6.554;2022-09-01T10:57:37;101577.46;;;23.89;36.56
40372;BME280;28564;53.346;-6.554;2022-09-01T11:02:03;101576.24;;;23.99;36.85
40372;BME280;28564;53.346;-6.554;2022-09-01T11:05:12;101569.23;;;24.12;37.12
40372;BME280;28564;53.346;-6.554;2022-09-01T11:07:40;101567.23;;;24.43;36.56
40372;BME280;28564;53.346;-6.554;2022-09-01T11:10:22;101564.29;;;24.97;36.26
40372;BME280;28564;53.346;-6.554;2022-09-01T11:13:07;101562.20;;;25.10;35.80
40372;BME280;28564;53.346;-6.554;2022-09-01T11:15:40;101565.75;;;25.03;35.29
40372;BME280;28564;53.346;-6.554;2022-09-01T11:18:13;101564.36;;;25.07;35.35
40372;BME280;28564;53.346;-6.554;2022-09-01T11:20:42;101565.37;;;24.76;35.45
40372;BME280;28564;53.346;-6.554;2022-09-01T11:23:19;101562.94;;;24.77;35.93
40372;BME280;28564;53.346;-6.554;2022-09-01T11:25:48;101560.18;;;24.72;35.69
40372;BME280;28564;53.346;-6.554;2022-09-01T11:28:40;101554.32;;;24.86;35.48
40372;BME280;28564;53.346;-6.554;2022-09-01T11:31:19;101556.94;;;24.36;35.67
40372;BME280;28564;53.346;-6.554;2022-09-01T11:33:58;101557.98;;;24.19;36.02
40372;BME280;28564;53.346;-6.554;2022-09-01T11:36:30;101560.60;;;23.87;36.45
40372;BME280;28564;53.346;-6.554;2022-09-01T11:39:05;101560.72;;;23.81;36.45
40372;BME280;28564;53.346;-6.554;2022-09-01T11:41:45;101559.04;;;23.73;36.50
40372;BME280;28564;53.346;-6.554;2022-09-01T11:44:19;101559.39;;;23.62;36.68
40372;BME280;28564;53.346;-6.554;2022-09-01T11:46:49;101558.65;;;23.49;36.81
40372;BME280;28564;53.346;-6.554;2022-09-01T11:49:27;101559.78;;;23.79;37.01
40372;BME280;28564;53.346;-6.554;2022-09-01T11:52:01;101556.75;;;23.47;36.80
40372;BME280;28564;53.346;-6.554;2022-09-01T11:54:35;101555.99;;;23.60;36.75
40372;BME280;28564;53.346;-6.554;2022-09-01T11:57:17;101553.86;;;23.44;36.93
40372;BME280;28564;53.346;-6.554;2022-09-01T11:59:44;101555.38;;;23.64;37.33
40372;BME280;28564;53.346;-6.554;2022-09-01T12:02:16;101555.08;;;23.61;37.27
40372;BME280;28564;53.346;-6.554;2022-09-01T12:04:43;101551.24;;;23.61;37.19
40372;BME280;28564;53.346;-6.554;2022-09-01T12:07:13;101553.30;;;23.99;36.94
40372;BME280;28564;53.346;-6.554;2022-09-01T12:09:49;101548.49;;;23.91;36.99
40372;BME280;28564;53.346;-6.554;2022-09-01T12:12:29;101546.53;;;23.88;37.02
40372;BME280;28564;53.346;-6.554;2022-09-01T12:14:57;101547.31;;;23.58;37.10
40372;BME280;28564;53.346;-6.554;2022-09-01T12:17:25;101546.22;;;23.61;37.04
40372;BME280;28564;53.346;-6.554;2022-09-01T12:19:52;101549.03;;;23.61;36.78
40372;BME280;28564;53.346;-6.554;2022-09-01T12:22:20;101546.29;;;23.84;37.04
40372;BME280;28564;53.346;-6.554;2022-09-01T12:24:50;101543.51;;;23.79;36.68
40372;BME280;28564;53.346;-6.554;2022-09-01T12:27:18;101540.72;;;23.58;36.57
40372;BME280;28564;53.346;-6.554;2022-09-01T12:29:46;101540.59;;;23.77;36.48
40372;BME280;28564;53.346;-6.554;2022-09-01T12:32:14;101539.89;;;23.79;36.67
40372;BME280;28564;53.346;-6.554;2022-09-01T12:34:44;101538.29;;;23.68;36.49
40372;BME280;28564;53.346;-6.554;2022-09-01T12:37:20;101536.09;;;24.00;36.04
40372;BME280;28564;53.346;-6.554;2022-09-01T12:39:49;101529.89;;;23.65;35.98
40372;BME280;28564;53.346;-6.554;2022-09-01T12:42:25;101529.50;;;25.24;35.55
40372;BME280;28564;53.346;-6.554;2022-09-01T12:44:54;101526.68;;;25.45;34.70
40372;BME280;28564;53.346;-6.554;2022-09-01T12:47:56;101527.62;;;25.00;33.27
40372;BME280;28564;53.346;-6.554;2022-09-01T12:50:57;101526.07;;;24.99;33.98
40372;BME280;28564;53.346;-6.554;2022-09-01T12:53:26;101522.43;;;24.97;34.22
40372;BME280;28564;53.346;-6.554;2022-09-01T12:56:01;101524.63;;;24.90;34.10
40372;BME280;28564;53.346;-6.554;2022-09-01T12:58:29;101523.45;;;24.89;34.15
40372;BME280;28564;53.346;-6.554;2022-09-01T13:01:00;101519.52;;;24.89;33.89
40372;BME280;28564;53.346;-6.554;2022-09-01T13:03:30;101518.07;;;24.88;33.59
40372;BME280;28564;53.346;-6.554;2022-09-01T13:05:59;101515.48;;;25.07;33.63
40372;BME280;28564;53.346;-6.554;2022-09-01T13:08:28;101515.79;;;25.43;33.48
40372;BME280;28564;53.346;-6.554;2022-09-01T13:11:00;101510.62;;;25.18;33.62
40372;BME280;28564;53.346;-6.554;2022-09-01T13:13:28;101511.90;;;25.41;33.48
40372;BME280;28564;53.346;-6.554;2022-09-01T13:15:58;101511.75;;;25.45;33.22
40372;BME280;28564;53.346;-6.554;2022-09-01T13:18:26;101507.70;;;25.55;32.83
40372;BME280;28564;53.346;-6.554;2022-09-01T13:20:55;101502.95;;;25.22;32.52
40372;BME280;28564;53.346;-6.554;2022-09-01T13:23:23;101497.35;;;25.30;32.63
40372;BME280;28564;53.346;-6.554;2022-09-01T13:25:50;101490.44;;;25.95;32.57
40372;BME280;28564;53.346;-6.554;2022-09-01T13:28:18;101492.70;;;27.12;31.85
40372;BME280;28564;53.346;-6.554;2022-09-01T13:30:51;101489.65;;;27.10;31.00
40372;BME280;28564;53.346;-6.554;2022-09-01T13:33:20;101488.13;;;28.72;29.63
40372;BME280;28564;53.346;-6.554;2022-09-01T13:35:48;101482.44;;;30.44;28.56
40372;BME280;28564;53.346;-6.554;2022-09-01T13:38:17;101478.49;;;31.22;26.71
40372;BME280;28564;53.346;-6.554;2022-09-01T13:40:46;101476.94;;;32.41;25.85
40372;BME280;28564;53.346;-6.554;2022-09-01T13:43:14;101477.47;;;30.95;25.02
40372;BME280;28564;53.346;-6.554;2022-09-01T13:45:42;101472.74;;;32.23;24.54
40372;BME280;28564;53.346;-6.554;2022-09-01T13:48:09;101474.67;;;34.10;23.47
40372;BME280;28564;53.346;-6.554;2022-09-01T13:50:37;101472.83;;;33.17;22.41
40372;BME280;28564;53.346;-6.554;2022-09-01T13:53:05;101465.89;;;32.99;22.32
40372;BME280;28564;53.346;-6.554;2022-09-01T13:55:34;101454.68;;;34.17;22.21
40372;BME280;28564;53.346;-6.554;2022-09-01T13:58:05;101457.37;;;35.71;21.39
40372;BME280;28564;53.346;-6.554;2022-09-01T14:00:41;101463.56;;;36.03;20.20
40372;BME280;28564;53.346;-6.554;2022-09-01T14:03:17;101458.41;;;36.59;20.02
40372;BME280;28564;53.346;-6.554;2022-09-01T14:05:46;101452.75;;;35.91;19.96
40372;BME280;28564;53.346;-6.554;2022-09-01T14:08:16;101449.90;;;36.38;19.76
40372;BME280;28564;53.346;-6.554;2022-09-01T14:10:47;101452.80;;;37.48;19.39
40372;BME280;28564;53.346;-6.554;2022-09-01T14:13:14;101446.24;;;38.24;18.54
40372;BME280;28564;53.346;-6.554;2022-09-01T14:15:43;101443.29;;;39.04;18.02
40372;BME280;28564;53.346;-6.554;2022-09-01T14:18:11;101442.55;;;39.96;17.46
40372;BME280;28564;53.346;-6.554;2022-09-01T14:20:45;101436.68;;;40.12;17.23
40372;BME280;28564;53.346;-6.554;2022-09-01T14:23:14;101434.78;;;40.25;16.94
40372;BME280;28564;53.346;-6.554;2022-09-01T14:25:43;101426.17;;;38.11;17.19
40372;BME280;28564;53.346;-6.554;2022-09-01T14:28:11;101423.67;;;38.21;17.62
40372;BME280;28564;53.346;-6.554;2022-09-01T14:30:39;101422.55;;;38.20;17.80
40372;BME280;28564;53.346;-6.554;2022-09-01T14:33:07;101423.73;;;39.41;17.33
40372;BME280;28564;53.346;-6.554;2022-09-01T14:35:37;101423.95;;;40.07;16.94
40372;BME280;28564;53.346;-6.554;2022-09-01T14:38:05;101420.04;;;39.90;16.23
40372;BME280;28564;53.346;-6.554;2022-09-01T14:40:39;101422.64;;;38.77;16.79
40372;BME280;28564;53.346;-6.554;2022-09-01T14:43:08;101416.84;;;37.71;17.36
40372;BME280;28564;53.346;-6.554;2022-09-01T14:45:35;101414.63;;;38.30;17.25
40372;BME280;28564;53.346;-6.554;2022-09-01T14:48:03;101412.40;;;38.79;16.76
40372;BME280;28564;53.346;-6.554;2022-09-01T14:50:37;101412.20;;;38.39;17.06
40372;BME280;28564;53.346;-6.554;2022-09-01T14:53:05;101408.09;;;35.38;18.75
40372;BME280;28564;53.346;-6.554;2022-09-01T14:55:38;101404.38;;;33.84;20.35
40372;BME280;28564;53.346;-6.554;2022-09-01T14:58:05;101408.64;;;32.65;21.64
40372;BME280;28564;53.346;-6.554;2022-09-01T15:00:33;101407.89;;;34.41;21.28
40372;BME280;28564;53.346;-6.554;2022-09-01T15:03:02;101414.17;;;35.31;20.63
40372;BME280;28564;53.346;-6.554;2022-09-01T15:05:30;101409.18;;;34.27;20.74
40372;BME280;28564;53.346;-6.554;2022-09-01T15:07:57;101406.82;;;33.61;21.19
40372;BME280;28564;53.346;-6.554;2022-09-01T15:10:25;101399.84;;;34.62;20.37
40372;BME280;28564;53.346;-6.554;2022-09-01T15:12:55;101395.38;;;34.80;20.40
40372;BME280;28564;53.346;-6.554;2022-09-01T15:15:24;101397.65;;;35.70;19.70
40372;BME280;28564;53.346;-6.554;2022-09-01T15:17:51;101392.38;;;35.55;19.50
40372;BME280;28564;53.346;-6.554;2022-09-01T15:20:19;101394.51;;;35.92;19.14
40372;BME280;28564;53.346;-6.554;2022-09-01T15:22:46;101391.78;;;36.09;18.88
40372;BME280;28564;53.346;-6.554;2022-09-01T15:25:14;101386.57;;;36.01;18.79
40372;BME280;28564;53.346;-6.554;2022-09-01T15:27:42;101385.82;;;36.95;18.51
40372;BME280;28564;53.346;-6.554;2022-09-01T15:30:10;101385.96;;;37.74;17.70
40372;BME280;28564;53.346;-6.554;2022-09-01T15:32:38;101373.09;;;38.33;17.45
40372;BME280;28564;53.346;-6.554;2022-09-01T15:35:06;101367.61;;;38.98;17.01
40372;BME280;28564;53.346;-6.554;2022-09-01T15:37:34;101368.95;;;39.26;16.64
40372;BME280;28564;53.346;-6.554;2022-09-01T15:40:03;101363.44;;;38.15;16.91
40372;BME280;28564;53.346;-6.554;2022-09-01T15:42:30;101360.48;;;36.75;17.82
40372;BME280;28564;53.346;-6.554;2022-09-01T15:44:59;101366.86;;;37.45;17.63
40372;BME280;28564;53.346;-6.554;2022-09-01T15:47:26;101362.41;;;36.98;17.52
40372;BME280;28564;53.346;-6.554;2022-09-01T15:49:55;101358.71;;;37.41;17.39
40372;BME280;28564;53.346;-6.554;2022-09-01T15:52:22;101358.30;;;36.95;17.72
40372;BME280;28564;53.346;-6.554;2022-09-01T15:54:50;101349.59;;;35.43;18.85
40372;BME280;28564;53.346;-6.554;2022-09-01T15:57:17;101351.32;;;34.88;19.60
40372;BME280;28564;53.346;-6.554;2022-09-01T15:59:45;101343.55;;;34.81;19.79
40372;BME280;28564;53.346;-6.554;2022-09-01T16:02:12;101344.92;;;34.26;20.39
40372;BME280;28564;53.346;-6.554;2022-09-01T16:04:40;101338.49;;;33.36;21.36
40372;BME280;28564;53.346;-6.554;2022-09-01T16:07:07;101340.69;;;33.32;22.08
40372;BME280;28564;53.346;-6.554;2022-09-01T16:09:35;101336.50;;;34.41;21.54
40372;BME280;28564;53.346;-6.554;2022-09-01T16:12:03;101337.25;;;33.24;21.97
40372;BME280;28564;53.346;-6.554;2022-09-01T16:14:30;101339.37;;;32.46;22.61
40372;BME280;28564;53.346;-6.554;2022-09-01T16:17:02;101337.15;;;31.82;23.17
40372;BME280;28564;53.346;-6.554;2022-09-01T16:19:37;101336.21;;;32.70;22.94
40372;BME280;28564;53.346;-6.554;2022-09-01T16:22:12;101337.21;;;32.65;22.73
40372;BME280;28564;53.346;-6.554;2022-09-01T16:24:43;101331.54;;;31.43;23.48
40372;BME280;28564;53.346;-6.554;2022-09-01T16:27:14;101326.22;;;30.76;24.43
40372;BME280;28564;53.346;-6.554;2022-09-01T16:29:46;101319.63;;;29.90;24.81
40372;BME280;28564;53.346;-6.554;2022-09-01T16:32:14;101323.28;;;31.13;24.59
40372;BME280;28564;53.346;-6.554;2022-09-01T16:34:43;101329.73;;;32.16;23.43
40372;BME280;28564;53.346;-6.554;2022-09-01T16:37:17;101330.43;;;32.33;23.03
40372;BME280;28564;53.346;-6.554;2022-09-01T16:39:55;101331.60;;;33.15;22.72
40372;BME280;28564;53.346;-6.554;2022-09-01T16:42:33;101331.34;;;32.81;22.89
40372;BME280;28564;53.346;-6.554;2022-09-01T16:45:06;101325.57;;;32.07;23.74
40372;BME280;28564;53.346;-6.554;2022-09-01T16:47:45;101322.84;;;31.15;24.81
40372;BME280;28564;53.346;-6.554;2022-09-01T16:50:24;101323.52;;;30.27;26.03
40372;BME280;28564;53.346;-6.554;2022-09-01T16:53:05;101321.85;;;29.78;26.99
40372;BME280;28564;53.346;-6.554;2022-09-01T16:55:41;101316.08;;;28.95;27.62
40372;BME280;28564;53.346;-6.554;2022-09-01T16:58:18;101325.69;;;29.05;27.93
40372;BME280;28564;53.346;-6.554;2022-09-01T17:00:54;101322.75;;;28.00;28.39
40372;BME280;28564;53.346;-6.554;2022-09-01T17:03:31;101322.26;;;27.89;29.28
40372;BME280;28564;53.346;-6.554;2022-09-01T17:06:05;101318.56;;;27.61;29.86
40372;BME280;28564;53.346;-6.554;2022-09-01T17:08:45;101314.74;;;27.43;30.37
40372;BME280;28564;53.346;-6.554;2022-09-01T17:11:22;101309.25;;;27.00;30.98
40372;BME280;28564;53.346;-6.554;2022-09-01T17:13:51;101315.89;;;26.93;31.49
40372;BME280;28564;53.346;-6.554;2022-09-01T17:16:21;101317.54;;;26.54;31.75
40372;BME280;28564;53.346;-6.554;2022-09-01T17:18:54;101315.46;;;26.92;31.72
40372;BME280;28564;53.346;-6.554;2022-09-01T17:21:25;101310.23;;;26.54;31.83
40372;BME280;28564;53.346;-6.554;2022-09-01T17:23:59;101307.90;;;26.09;32.58
40372;BME280;28564;53.346;-6.554;2022-09-01T17:26:29;101310.28;;;25.84;33.06
40372;BME280;28564;53.346;-6.554;2022-09-01T17:29:01;101307.29;;;25.89;33.31
